createdAt,value
2018-09-20T04:32:32.872Z,9.73
2018-09-20T04:35:00.800Z,8.97
2018-09-20T04:37:28.760Z,9.23
2018-09-20T04:39:56.703Z,8.67
2018-09-20T04:42:24.683Z,9.70
2018-09-20T04:44:52.642Z,9.73
2018-09-20T04:47:20.591Z,9.70
2018-09-20T04:49:48.515Z,9.63
2018-09-20T04:52:16.446Z,10.17
2018-09-20T04:54:44.362Z,10.03
2018-09-20T04:57:12.273Z,9.80
2018-09-20T04:59:40.256Z,9.83
2018-09-20T05:02:08.168Z,10.33
2018-09-20T05:04:36.313Z,9.80
2018-09-20T05:07:04.267Z,10.60
2018-09-20T05:09:32.268Z,10.63
2018-09-20T05:12:00.196Z,9.90
2018-09-20T05:14:28.113Z,10.10
2018-09-20T05:16:57.396Z,9.93
2018-09-20T05:19:25.325Z,10.40
2018-09-20T05:21:53.312Z,8.83
2018-09-20T05:24:21.294Z,9.10
2018-09-20T05:26:49.322Z,9.23
2018-09-20T05:29:17.318Z,8.90
2018-09-20T05:31:45.245Z,9.53
2018-09-20T05:34:13.256Z,9.43
2018-09-20T05:36:41.200Z,10.50
2018-09-20T05:39:10.224Z,9.67
2018-09-20T05:41:38.145Z,9.83
2018-09-20T05:44:06.089Z,9.00
2018-09-20T05:46:34.034Z,9.27
2018-09-20T05:49:01.996Z,9.20
2018-09-20T05:51:29.903Z,8.73
2018-09-20T05:53:57.836Z,7.90
2018-09-20T05:56:25.928Z,8.33
2018-09-20T05:58:53.988Z,8.20
2018-09-20T06:01:21.899Z,8.47
2018-09-20T06:03:49.820Z,8.70
2018-09-20T06:06:17.740Z,8.90
2018-09-20T06:08:45.744Z,7.77
2018-09-20T06:11:13.687Z,7.80
2018-09-20T06:13:41.588Z,8.30
2018-09-20T06:16:09.512Z,7.30
2018-09-20T06:18:36.972Z,8.40
2018-09-20T06:21:05.013Z,8.57
2018-09-20T06:23:32.947Z,8.20
2018-09-20T06:26:00.952Z,8.40
2018-09-20T06:28:28.894Z,8.47
2018-09-20T06:30:56.836Z,8.70
2018-09-20T06:33:24.768Z,9.10
2018-09-20T06:35:52.768Z,8.67
2018-09-20T06:38:20.903Z,9.27
2018-09-20T06:40:48.872Z,9.73
2018-09-20T06:43:16.828Z,8.33
2018-09-20T15:00:25.988Z,4.10
2018-09-20T15:02:53.532Z,3.70
2018-09-20T15:05:21.456Z,3.97
2018-09-20T15:07:49.388Z,5.13
2018-09-20T15:10:17.384Z,3.70
2018-09-20T15:12:45.352Z,4.07
2018-09-20T15:15:13.401Z,4.30
2018-09-20T15:17:40.888Z,4.40
2018-09-20T15:20:08.877Z,4.57
2018-09-20T15:22:36.820Z,4.37
2018-09-20T15:25:04.916Z,3.63
2018-09-20T15:27:32.839Z,3.90
2018-09-20T15:30:00.784Z,4.17
2018-09-20T15:32:28.753Z,4.67
2018-09-20T15:34:56.737Z,4.57
2018-09-20T15:37:24.632Z,4.03
2018-09-20T15:39:52.612Z,4.37
2018-09-20T15:42:20.455Z,4.30
2018-09-20T15:44:48.368Z,4.50
2018-09-20T15:47:16.405Z,4.73
2018-09-20T15:49:44.351Z,5.00
2018-09-20T15:52:12.250Z,4.80
2018-09-20T15:54:40.216Z,4.40
2018-09-20T15:57:08.201Z,4.80
2018-09-20T15:59:36.107Z,4.50
2018-09-20T16:02:04.306Z,4.87
2018-09-20T16:04:32.374Z,4.83
2018-09-20T16:07:00.295Z,4.87
2018-09-20T16:09:28.239Z,4.70
2018-09-20T16:11:56.212Z,4.50
2018-09-20T16:14:24.165Z,4.80
2018-09-20T16:16:52.121Z,5.30
2018-09-20T16:19:19.637Z,5.60
2018-09-20T16:21:47.649Z,5.00
2018-09-20T16:24:15.652Z,6.37
2018-09-20T16:26:43.627Z,4.97
2018-09-20T16:29:13.966Z,5.00
2018-09-20T16:32:03.696Z,5.00
2018-09-20T16:34:36.760Z,4.77
2018-09-20T16:37:09.496Z,4.77
2018-09-20T16:39:38.055Z,6.20
2018-09-20T16:42:06.664Z,5.80
2018-09-20T16:44:34.671Z,5.30
2018-09-20T16:47:02.608Z,5.53
2018-09-20T16:49:30.579Z,6.70
2018-09-20T16:51:58.543Z,5.00
2018-09-20T16:54:26.476Z,5.20
2018-09-20T16:56:54.488Z,6.90
2018-09-20T16:59:22.428Z,5.33
2018-09-20T17:01:50.427Z,12.37
2018-09-20T17:04:18.344Z,6.70
2018-09-20T17:06:46.372Z,6.53
2018-09-20T17:09:14.336Z,5.13
2018-09-20T17:11:42.304Z,6.27
2018-09-20T17:14:10.272Z,6.23
2018-09-20T17:16:38.263Z,6.30
2018-09-20T17:19:05.696Z,7.70
2018-09-20T17:21:33.841Z,8.37
2018-09-20T17:24:01.760Z,9.00
2018-09-20T17:26:29.736Z,7.37
2018-09-20T17:28:57.656Z,7.80
2018-09-20T17:31:25.675Z,9.53
2018-09-20T17:33:53.592Z,9.33
2018-09-20T17:36:21.725Z,7.07
2018-09-20T17:38:50.203Z,8.70
2018-09-20T17:41:20.947Z,6.90
2018-09-20T17:43:51.670Z,5.93
2018-09-20T17:46:19.683Z,6.00
2018-09-20T17:48:47.604Z,4.57
2018-09-20T17:51:16.257Z,5.33
2018-09-20T17:53:44.469Z,5.80
2018-09-20T17:56:12.601Z,6.17
2018-09-20T17:58:40.921Z,6.27
2018-09-20T18:01:08.971Z,5.10
2018-09-20T18:03:36.840Z,5.23
2018-09-20T18:06:04.824Z,5.40
2018-09-20T18:08:32.772Z,4.80
2018-09-20T18:11:00.780Z,5.50
2018-09-20T18:13:28.704Z,4.60
2018-09-20T18:15:56.684Z,4.80
2018-09-20T18:18:24.216Z,5.00
2018-09-20T18:20:52.111Z,5.50
2018-09-20T18:23:20.064Z,5.77
2018-09-20T18:25:48.120Z,5.40
2018-09-20T18:28:16.135Z,4.53
2018-09-20T18:30:44.128Z,5.13
2018-09-20T18:33:12.515Z,4.83
2018-09-20T18:35:42.080Z,5.43
2018-09-20T18:38:10.028Z,4.97
2018-09-20T18:40:38.093Z,4.80
2018-09-20T18:43:06.500Z,5.10
2018-09-20T18:45:34.467Z,5.10
2018-09-20T18:48:02.384Z,5.13
2018-09-20T18:50:30.535Z,4.70
2018-09-20T18:52:58.551Z,4.60
2018-09-20T18:55:26.500Z,4.53
2018-09-20T18:57:54.451Z,5.57
2018-09-20T19:00:23.078Z,6.20
2018-09-20T19:02:51.085Z,5.20
2018-09-20T19:05:19.068Z,5.50
2018-09-20T19:07:47.262Z,4.73
2018-09-20T19:10:15.192Z,5.47
2018-09-20T19:12:43.113Z,7.10
2018-09-20T19:15:11.157Z,5.60
2018-09-20T19:17:39.224Z,6.03
2018-09-20T19:20:09.244Z,6.87
2018-09-20T19:22:37.203Z,11.00
2018-09-20T19:25:05.114Z,10.00
2018-09-20T19:27:33.142Z,7.00
2018-09-20T19:30:01.173Z,7.40
2018-09-20T19:32:29.121Z,5.10
2018-09-20T19:34:57.056Z,5.60
2018-09-20T19:37:24.968Z,9.37
2018-09-20T19:39:53.208Z,9.10
2018-09-20T19:42:21.188Z,7.03
2018-09-20T19:44:49.149Z,6.10
2018-09-20T19:47:17.239Z,6.40
2018-09-20T19:49:45.188Z,6.97
2018-09-20T19:52:13.204Z,6.97
2018-09-20T19:54:41.116Z,5.93
2018-09-20T19:57:09.031Z,6.70
2018-09-20T19:59:36.968Z,5.90
2018-09-20T20:02:04.908Z,7.40
2018-09-20T20:04:32.827Z,7.10
2018-09-20T20:07:00.761Z,6.90
2018-09-20T20:09:28.731Z,7.33
2018-09-20T20:11:56.648Z,7.53
2018-09-20T20:14:24.672Z,9.20
2018-09-20T20:16:52.600Z,7.87
2018-09-20T20:19:20.590Z,8.90
2018-09-20T20:21:48.020Z,7.47
2018-09-20T20:24:16.043Z,7.53
2018-09-20T20:26:43.959Z,8.20
2018-09-20T20:29:11.892Z,7.83
2018-09-20T20:31:39.804Z,8.47
2018-09-20T20:34:07.811Z,7.17
2018-09-20T20:36:35.724Z,7.43
2018-09-20T20:39:05.244Z,7.50
2018-09-20T20:41:33.151Z,7.50
2018-09-20T20:44:01.072Z,7.70
2018-09-20T20:46:29.080Z,7.10
2018-09-20T20:48:57.010Z,7.00
2018-09-20T20:51:25.019Z,6.47
2018-09-20T20:53:52.948Z,6.60
2018-09-20T20:56:20.959Z,6.83
2018-09-20T20:58:48.902Z,6.00
2018-09-20T21:01:18.765Z,6.20
2018-09-20T21:03:47.160Z,5.00
2018-09-20T21:06:15.433Z,6.10
2018-09-20T21:08:43.364Z,5.83
2018-09-20T21:11:11.306Z,5.30
2018-09-20T21:13:39.385Z,6.40
2018-09-20T21:16:07.414Z,6.00
2018-09-20T21:18:35.356Z,6.10
2018-09-20T21:21:02.944Z,6.57
2018-09-20T21:23:30.884Z,7.10
2018-09-20T21:25:58.856Z,5.33
2018-09-20T21:28:26.796Z,5.83
2018-09-20T21:30:54.929Z,6.20
2018-09-20T21:33:22.836Z,5.27
2018-09-20T21:35:50.837Z,5.07
2018-09-20T21:38:18.807Z,6.93
2018-09-20T21:40:46.915Z,6.13
2018-09-20T21:43:14.821Z,6.23
2018-09-20T21:45:42.817Z,5.97
2018-09-20T21:48:10.792Z,6.27
2018-09-20T21:50:38.764Z,5.77
2018-09-20T21:53:06.732Z,6.47
2018-09-20T21:55:34.765Z,6.70
2018-09-20T21:58:02.784Z,6.10
2018-09-20T22:00:30.720Z,6.10
2018-09-20T22:03:03.208Z,5.77
2018-09-20T22:05:32.137Z,6.63
2018-09-20T22:08:00.070Z,5.63
2018-09-20T22:10:27.977Z,5.53
2018-09-20T22:12:56.244Z,5.97
2018-09-20T22:15:25.136Z,5.50
2018-09-20T22:17:53.839Z,5.73
2018-09-20T22:20:21.897Z,6.90
2018-09-20T22:22:49.811Z,5.10
2018-09-20T22:25:17.808Z,6.77
2018-09-20T22:27:45.800Z,5.53
2018-09-20T22:30:14.012Z,5.07
2018-09-20T22:32:42.024Z,6.23
2018-09-20T22:35:09.939Z,5.60
2018-09-20T22:37:37.963Z,5.70
2018-09-20T22:40:06.137Z,6.27
2018-09-20T22:42:34.114Z,5.40
2018-09-20T22:45:02.622Z,6.53
2018-09-20T22:47:30.644Z,6.33
2018-09-20T22:49:58.660Z,6.90
2018-09-20T22:52:26.632Z,6.33
2018-09-20T22:54:54.603Z,6.30
2018-09-20T22:57:22.524Z,6.50
2018-09-20T22:59:50.440Z,6.53
2018-09-20T23:02:18.357Z,6.27
2018-09-20T23:04:46.432Z,6.67
2018-09-20T23:07:14.343Z,6.50
2018-09-20T23:09:42.324Z,7.27
2018-09-20T23:12:38.960Z,6.47
2018-09-20T23:15:06.872Z,6.73
2018-09-20T23:17:34.775Z,7.00
2018-09-20T23:20:02.766Z,7.60
2018-09-20T23:22:30.744Z,7.80
2018-09-20T23:24:58.708Z,7.90
2018-09-20T23:27:26.677Z,7.50
2018-09-20T23:29:54.644Z,6.90
2018-09-20T23:32:22.743Z,7.87
2018-09-20T23:34:50.684Z,7.67
2018-09-20T23:37:18.652Z,7.73
2018-09-20T23:39:46.629Z,7.80
2018-09-20T23:42:14.596Z,8.20
2018-09-20T23:44:42.504Z,7.87
2018-09-20T23:47:10.432Z,7.50
2018-09-20T23:49:39.357Z,8.07
2018-09-20T23:52:07.311Z,7.90
2018-09-20T23:54:35.212Z,8.30
2018-09-20T23:57:03.132Z,7.80
2018-09-20T23:59:31.048Z,7.93
